Terminal Aerodrome Forecast
Issued by NWS Buffalo, NY

Home | Current Version | Previous Version | Text Only | Print | Product List | Glossary On
Versions: 1 2 3 4 5 6 7 8 9 10 11 12 13 14 15 16 17 18 19 20 21 22 23 24 25 26
000
FTUS41 KBUF 292300 AAA
TAFBUF
TAF AMD
KBUF 292318Z 2923/3018 20014KT 2SM -SN OVC007
     FM300700 28012G18KT 2SM -SN OVC015
     FM301200 29012G18KT 4SM -SN BKN015=

USA.gov is the U.S. government's official web portal to all federal, state and local government web resources and services.